Time;durP1;ratioP1;P1;durP2;ratioP2;P2;SDS_P1;SDS_P2;PMS_P1;PMS_P2;Temp;Humidity;BMP_temperature;BMP_pressure;BME280_temperature;BME280_humidity;BME280_pressure;Samples;Min_cycle;Max_cycle;Signal;HPM_P1;HPM_P2
2021/09/16 00:01:40;;;;;;;5.10;2.93;;;15.50;81.40;;;;;;5114167;28;20547;-91
2021/09/16 00:04:09;;;;;;;3.80;2.60;;;15.40;79.70;;;;;;5113917;28;20501;-92
2021/09/16 00:06:36;;;;;;;6.47;2.93;;;15.40;80.90;;;;;;5114084;28;20453;-89
2021/09/16 00:09:03;;;;;;;7.87;3.83;;;15.30;82.90;;;;;;5114126;28;20451;-92
2021/09/16 00:11:30;;;;;;;7.90;4.53;;;15.20;83.20;;;;;;5113053;28;20827;-90
2021/09/16 00:13:58;;;;;;;4.90;4.50;;;14.90;86.20;;;;;;5114243;28;20456;-85
2021/09/16 00:16:25;;;;;;;6.57;5.40;;;14.80;87.70;;;;;;5113923;28;20539;-89
2021/09/16 00:18:52;;;;;;;9.37;5.70;;;14.70;90.00;;;;;;5114023;28;20456;-90
2021/09/16 00:21:19;;;;;;;6.33;5.83;;;14.40;90.00;;;;;;5113974;28;20535;-90
2021/09/16 00:23:46;;;;;;;13.40;7.30;;;14.20;91.50;;;;;;5113915;28;20453;-91
2021/09/16 00:26:13;;;;;;;13.43;8.70;;;14.10;92.30;;;;;;5113017;28;20489;-89
2021/09/16 00:28:40;;;;;;;12.17;11.17;;;14.00;92.60;;;;;;5114138;28;20543;-91
2021/09/16 00:31:08;;;;;;;14.67;13.50;;;13.80;93.80;;;;;;5114019;28;20455;-88
2021/09/16 00:33:35;;;;;;;17.60;16.53;;;13.80;95.10;;;;;;5113702;28;20874;-90
2021/09/16 00:36:02;;;;;;;19.50;18.40;;;13.70;96.10;;;;;;5113558;28;20534;-89
2021/09/16 00:38:29;;;;;;;24.10;22.67;;;13.60;97.80;;;;;;5113627;28;20880;-86
2021/09/16 00:40:56;;;;;;;25.13;23.90;;;13.50;99.00;;;;;;5112734;28;20814;-87
2021/09/16 00:43:23;;;;;;;31.70;30.00;;;13.40;99.40;;;;;;5113528;28;20539;-93
2021/09/16 00:45:49;;;;;;;41.00;38.80;;;13.30;99.90;;;;;;5113736;28;20547;-90
2021/09/16 00:48:18;;;;;;;44.97;42.90;;;13.10;99.90;;;;;;5113909;28;20509;-85
2021/09/16 00:50:45;;;;;;;50.70;48.20;;;13.20;99.90;;;;;;5113640;28;20448;-88
2021/09/16 00:53:12;;;;;;;49.87;47.77;;;13.20;99.90;;;;;;5113452;28;20970;-91
2021/09/16 00:55:39;;;;;;;56.30;53.70;;;13.10;99.90;;;;;;5112310;28;20567;-89
2021/09/16 00:58:07;;;;;;;59.53;56.97;;;13.10;99.90;;;;;;5113328;28;20888;-88
2021/09/16 01:00:36;;;;;;;63.80;61.00;;;13.10;99.90;;;;;;5113714;28;20455;-87
2021/09/16 01:03:03;;;;;;;63.63;61.03;;;13.00;99.90;;;;;;5113309;28;20483;-86
2021/09/16 01:05:31;;;;;;;72.13;69.13;;;13.00;99.90;;;;;;5113375;28;20479;-89
2021/09/16 01:07:59;;;;;;;78.27;74.97;;;13.00;99.90;;;;;;5113321;28;21069;-91
2021/09/16 01:10:26;;;;;;;83.50;79.70;;;12.90;99.90;;;;;;5111938;28;20445;-87
2021/09/16 01:12:53;;;;;;;94.53;90.40;;;12.80;99.90;;;;;;5113297;28;20457;-90
2021/09/16 01:15:19;;;;;;;103.90;99.50;;;12.60;99.90;;;;;;5113302;28;20920;-90
2021/09/16 01:17:47;;;;;;;109.37;104.57;;;12.60;99.90;;;;;;5113238;28;20452;-88
2021/09/16 01:20:14;;;;;;;122.20;116.20;;;12.60;99.90;;;;;;5113073;28;20944;-92
2021/09/16 01:22:43;;;;;;;124.00;118.70;;;12.60;99.90;;;;;;5113152;28;20486;-88
2021/09/16 01:25:10;;;;;;;128.60;122.60;;;12.70;99.90;;;;;;5112423;28;20449;-90
2021/09/16 01:27:37;;;;;;;129.47;123.80;;;12.60;99.90;;;;;;5113418;28;20774;-90
2021/09/16 01:30:05;;;;;;;130.50;124.10;;;12.60;99.90;;;;;;5113082;28;20449;-89
2021/09/16 01:32:32;;;;;;;130.40;124.10;;;12.50;99.90;;;;;;5113380;28;20565;-92
2021/09/16 01:34:59;;;;;;;137.73;131.10;;;12.50;99.90;;;;;;5113006;28;20477;-88
2021/09/16 01:37:26;;;;;;;141.23;134.03;;;12.40;99.90;;;;;;5112959;28;20486;-88
2021/09/16 01:39:54;;;;;;;147.43;140.87;;;12.30;99.90;;;;;;5112558;28;20488;-91
2021/09/16 01:42:21;;;;;;;151.97;144.60;;;12.30;99.90;;;;;;5113385;28;20472;-92
2021/09/16 01:44:50;;;;;;;154.30;147.23;;;12.40;99.90;;;;;;5113210;28;20461;-90
2021/09/16 01:47:17;;;;;;;156.20;148.70;;;12.40;99.90;;;;;;5113060;28;20511;-89
2021/09/16 01:49:44;;;;;;;160.07;152.97;;;12.30;99.90;;;;;;5113158;28;20460;-92
2021/09/16 01:52:11;;;;;;;173.43;165.53;;;12.40;99.90;;;;;;5112966;28;20488;-89
2021/09/16 01:54:38;;;;;;;177.77;169.67;;;12.30;99.90;;;;;;5113466;28;20484;-91
2021/09/16 01:57:06;;;;;;;178.97;170.97;;;12.40;99.90;;;;;;5112693;28;20453;-92
2021/09/16 01:59:33;;;;;;;183.80;175.90;;;12.50;99.90;;;;;;5113192;28;20466;-90
2021/09/16 02:02:00;;;;;;;181.07;172.87;;;12.50;99.90;;;;;;5112717;28;21046;-90
2021/09/16 02:04:27;;;;;;;184.43;175.77;;;12.50;99.90;;;;;;5113187;28;20919;-89
2021/09/16 02:06:54;;;;;;;184.27;176.47;;;12.50;99.90;;;;;;5112920;28;20504;-90
2021/09/16 02:09:21;;;;;;;183.13;174.93;;;12.50;99.90;;;;;;5113937;28;20539;-90
2021/09/16 02:11:48;;;;;;;183.97;175.87;;;12.60;99.90;;;;;;5115826;28;20496;-90
2021/09/16 02:14:18;;;;;;;190.30;181.87;;;12.60;99.90;;;;;;5116779;28;20484;-91
2021/09/16 02:16:45;;;;;;;184.93;177.17;;;12.50;99.90;;;;;;5117251;28;20924;-91
2021/09/16 02:19:14;;;;;;;174.97;166.97;;;12.50;99.90;;;;;;5117390;28;20456;-91
2021/09/16 02:21:41;;;;;;;180.43;172.40;;;12.60;99.90;;;;;;5117597;28;20491;-91
2021/09/16 02:24:08;;;;;;;170.27;162.90;;;12.50;99.90;;;;;;5118046;28;20958;-88
2021/09/16 02:26:34;;;;;;;165.30;157.30;;;12.40;99.90;;;;;;5115725;28;20476;-91
2021/09/16 02:29:03;;;;;;;163.20;155.80;;;12.30;99.90;;;;;;5116746;28;20453;-87
2021/09/16 02:31:31;;;;;;;159.73;152.63;;;12.30;99.90;;;;;;5116621;28;20900;-88
2021/09/16 02:33:58;;;;;;;167.43;160.00;;;12.20;99.90;;;;;;5116320;28;21022;-86
2021/09/16 02:36:26;;;;;;;170.07;162.40;;;12.20;99.90;;;;;;5117104;28;20452;-91
2021/09/16 02:38:53;;;;;;;186.87;178.67;;;12.30;99.90;;;;;;5116880;28;20460;-92
2021/09/16 02:41:20;;;;;;;191.80;182.43;;;12.40;99.90;;;;;;5115537;28;20803;-91
2021/09/16 02:43:48;;;;;;;198.30;189.80;;;12.40;99.90;;;;;;5116804;28;20544;-89
2021/09/16 02:46:15;;;;;;;205.60;196.83;;;12.50;99.90;;;;;;5117435;27;20492;-89
2021/09/16 02:48:43;;;;;;;209.60;199.60;;;12.60;99.90;;;;;;5117476;28;20492;-88
2021/09/16 02:51:10;;;;;;;208.90;198.73;;;12.70;99.90;;;;;;5118213;28;20524;-88
2021/09/16 02:53:37;;;;;;;215.90;205.90;;;12.90;99.90;;;;;;5116955;28;20790;-89
2021/09/16 02:56:04;;;;;;;190.53;182.23;;;13.00;99.90;;;;;;5116796;27;20540;-85
2021/09/16 02:58:31;;;;;;;186.73;178.43;;;13.00;99.90;;;;;;5118262;28;20516;-90
2021/09/16 03:00:58;;;;;;;170.10;161.77;;;13.10;99.90;;;;;;5117864;28;20440;-88
2021/09/16 03:03:25;;;;;;;146.10;139.17;;;13.10;99.90;;;;;;5118506;28;20567;-90
2021/09/16 03:05:53;;;;;;;131.67;125.60;;;13.20;99.90;;;;;;5118102;27;20888;-85
2021/09/16 03:08:20;;;;;;;118.80;113.10;;;13.00;99.90;;;;;;5119067;28;20945;-87
2021/09/16 03:10:47;;;;;;;118.33;112.80;;;13.00;99.90;;;;;;5116039;28;21078;-89
2021/09/16 03:13:13;;;;;;;114.20;108.37;;;12.90;99.90;;;;;;5116760;27;20882;-88
2021/09/16 03:15:40;;;;;;;110.57;105.37;;;12.80;99.90;;;;;;5117775;27;20889;-87
2021/09/16 03:18:07;;;;;;;108.07;102.97;;;12.70;99.90;;;;;;5119275;28;20499;-89
2021/09/16 03:20:34;;;;;;;113.47;107.83;;;12.60;99.90;;;;;;5119005;28;20870;-86
2021/09/16 03:23:02;;;;;;;114.27;108.27;;;12.60;99.90;;;;;;5117008;28;20859;-90
2021/09/16 03:25:29;;;;;;;118.20;112.30;;;12.50;99.90;;;;;;5116614;28;20494;-88
2021/09/16 03:27:56;;;;;;;118.70;112.83;;;12.50;99.90;;;;;;5118482;28;20835;-87
2021/09/16 03:30:23;;;;;;;124.50;118.40;;;12.50;99.90;;;;;;5116828;28;20488;-89
2021/09/16 03:32:50;;;;;;;124.57;118.40;;;12.60;99.90;;;;;;5115852;28;20489;-87
2021/09/16 03:35:17;;;;;;;130.63;123.83;;;12.60;99.90;;;;;;5115341;28;20445;-89
2021/09/16 03:37:44;;;;;;;132.47;126.27;;;12.70;99.90;;;;;;5116487;28;20449;-87
2021/09/16 03:40:13;;;;;;;138.27;131.57;;;12.70;99.90;;;;;;5116666;27;20539;-88
2021/09/16 03:42:39;;;;;;;145.27;137.93;;;12.80;99.90;;;;;;5119268;28;20520;-89
2021/09/16 03:45:07;;;;;;;135.03;128.20;;;13.00;99.90;;;;;;5119589;28;20457;-87
2021/09/16 03:47:36;;;;;;;134.53;128.00;;;13.00;99.90;;;;;;5117450;28;20608;-87
2021/09/16 03:50:04;;;;;;;125.10;118.80;;;13.10;99.90;;;;;;5117769;28;20505;-81
2021/09/16 03:52:31;;;;;;;117.90;112.10;;;13.00;99.90;;;;;;5118930;28;20452;-86
2021/09/16 03:54:57;;;;;;;113.00;107.50;;;13.20;99.90;;;;;;5118504;28;20520;-88
2021/09/16 03:57:26;;;;;;;108.13;102.63;;;13.10;99.90;;;;;;5120771;28;20480;-84
2021/09/16 03:59:55;;;;;;;97.97;93.20;;;13.10;99.90;;;;;;5119705;28;20954;-87
2021/09/16 04:02:23;;;;;;;90.03;85.03;;;13.20;99.90;;;;;;5117532;28;20476;-87
2021/09/16 04:04:50;;;;;;;88.23;83.27;;;13.30;99.90;;;;;;5118434;28;20448;-85
2021/09/16 04:07:17;;;;;;;83.37;79.37;;;13.20;99.90;;;;;;5118751;28;20488;-87
2021/09/16 04:09:44;;;;;;;84.33;80.00;;;13.10;99.90;;;;;;5119296;28;20465;-85
2021/09/16 04:12:11;;;;;;;83.20;78.83;;;13.00;99.90;;;;;;5118494;28;20457;-89
2021/09/16 04:14:39;;;;;;;83.63;79.43;;;12.90;99.90;;;;;;5118276;28;20449;-83
2021/09/16 04:17:06;;;;;;;83.23;79.13;;;12.90;99.90;;;;;;5116521;28;20495;-86
2021/09/16 04:19:33;;;;;;;89.73;85.10;;;13.00;99.90;;;;;;5115732;28;20884;-88
2021/09/16 04:22:00;;;;;;;94.60;90.10;;;12.80;99.90;;;;;;5116968;28;20484;-87
2021/09/16 04:24:27;;;;;;;97.77;92.87;;;12.80;99.90;;;;;;5118923;28;20555;-89
2021/09/16 04:26:54;;;;;;;96.93;92.23;;;12.80;99.90;;;;;;5115669;28;20481;-84
2021/09/16 04:29:21;;;;;;;104.43;99.17;;;12.80;99.90;;;;;;5115447;28;20548;-91
2021/09/16 04:31:49;;;;;;;102.67;98.00;;;12.70;99.90;;;;;;5114116;28;20879;-88
2021/09/16 04:34:16;;;;;;;110.17;105.07;;;12.70;99.90;;;;;;5114778;28;20445;-89
2021/09/16 04:36:43;;;;;;;109.00;102.90;;;12.70;99.90;;;;;;5115670;28;20514;-89
2021/09/16 04:39:10;;;;;;;113.20;107.70;;;12.80;99.90;;;;;;5113772;28;20539;-87
2021/09/16 04:41:42;;;;;;;113.20;108.00;;;12.90;99.90;;;;;;5112596;28;20539;-88
2021/09/16 04:44:09;;;;;;;115.13;109.57;;;12.80;99.90;;;;;;5113974;28;20476;-85
2021/09/16 04:46:36;;;;;;;114.17;108.67;;;12.80;99.90;;;;;;5094851;28;20469;-87
2021/09/16 04:49:15;;;;;;;;;;;;;;;;;;;;;
2021/09/16 04:51:41;;;;;;;113.10;107.57;;;12.80;99.90;;;;;;5090872;28;20499;-83
2021/09/16 04:54:08;;;;;;;119.63;113.50;;;12.80;99.90;;;;;;5097134;28;20555;-77
2021/09/16 04:56:35;;;;;;;117.87;112.17;;;12.80;99.90;;;;;;5112216;28;20452;-77
2021/09/16 04:59:02;;;;;;;122.53;116.73;;;12.90;99.90;;;;;;5112704;28;20451;-83
2021/09/16 05:01:29;;;;;;;117.10;111.80;;;12.80;99.90;;;;;;5113123;28;20455;-88
2021/09/16 05:03:56;;;;;;;123.53;117.50;;;12.80;99.90;;;;;;5113225;28;20463;-82
2021/09/16 05:06:24;;;;;;;122.30;116.10;;;12.60;99.90;;;;;;5113043;28;20483;-81
2021/09/16 05:08:51;;;;;;;123.97;118.37;;;12.60;99.90;;;;;;5113204;28;20541;-80
2021/09/16 05:11:17;;;;;;;128.97;122.33;;;12.70;99.90;;;;;;5112132;28;20870;-86
2021/09/16 05:13:44;;;;;;;131.37;124.77;;;12.60;99.90;;;;;;5114566;28;20456;-87
2021/09/16 05:16:11;;;;;;;132.27;126.07;;;12.60;99.90;;;;;;5116356;28;20481;-88
2021/09/16 05:18:38;;;;;;;139.90;133.10;;;12.70;99.90;;;;;;5120225;28;20528;-86
2021/09/16 05:21:05;;;;;;;138.60;131.80;;;12.60;99.90;;;;;;5121762;28;20452;-88
2021/09/16 05:23:33;;;;;;;144.00;136.50;;;12.60;99.90;;;;;;5121113;28;20531;-88
2021/09/16 05:26:00;;;;;;;140.47;133.30;;;12.60;99.90;;;;;;5117282;28;20524;-90
2021/09/16 05:28:27;;;;;;;141.93;135.17;;;12.70;99.90;;;;;;5118063;28;20520;-91
2021/09/16 05:30:54;;;;;;;140.80;133.40;;;12.80;99.90;;;;;;5116898;28;20502;-91
2021/09/16 05:33:21;;;;;;;140.83;134.00;;;12.70;99.90;;;;;;5114283;28;20449;-92
2021/09/16 05:35:48;;;;;;;141.93;135.20;;;12.70;99.90;;;;;;5113412;28;20457;-88
2021/09/16 05:38:15;;;;;;;142.70;135.40;;;12.70;99.90;;;;;;5113028;28;20991;-85
2021/09/16 05:40:43;;;;;;;148.53;140.90;;;12.70;99.90;;;;;;5111906;28;20449;-87
2021/09/16 05:46:44;;;;;;;137.20;129.17;;;13.10;99.90;;;;;;4974453;28;20471;-89
2021/09/16 05:49:11;;;;;;;127.80;121.43;;;13.10;99.90;;;;;;5086737;28;20532;-89
2021/09/16 05:51:38;;;;;;;122.40;115.73;;;13.10;99.90;;;;;;5117529;27;20543;-90
2021/09/16 05:54:05;;;;;;;114.03;108.57;;;13.20;99.90;;;;;;5117571;28;20560;-89
2021/09/16 05:56:33;;;;;;;110.00;104.10;;;13.30;99.90;;;;;;5115994;28;20536;-86
2021/09/16 05:59:00;;;;;;;102.73;97.53;;;13.30;99.90;;;;;;5116980;28;20946;-89
2021/09/16 06:01:29;;;;;;;101.00;96.00;;;13.30;99.90;;;;;;5116625;28;20480;-86
2021/09/16 06:03:55;;;;;;;98.73;92.23;;;13.40;99.90;;;;;;5116245;28;20444;-87
2021/09/16 06:06:22;;;;;;;95.70;90.80;;;13.40;99.90;;;;;;5116546;28;20543;-85
2021/09/16 06:08:49;;;;;;;94.60;89.67;;;13.30;99.90;;;;;;5116576;28;20496;-86
2021/09/16 06:11:16;;;;;;;90.50;85.90;;;13.40;99.90;;;;;;5115621;28;20457;-89
2021/09/16 06:13:44;;;;;;;87.37;82.70;;;13.30;99.90;;;;;;5116526;28;20495;-88
2021/09/16 06:16:11;;;;;;;88.07;83.33;;;13.40;99.90;;;;;;5117315;28;20440;-88
2021/09/16 06:18:38;;;;;;;90.20;85.20;;;13.40;99.90;;;;;;5116072;28;20531;-90
2021/09/16 06:21:05;;;;;;;85.63;80.43;;;13.50;99.90;;;;;;5116710;27;20483;-87
2021/09/16 06:23:32;;;;;;;85.70;80.80;;;13.80;99.90;;;;;;5117786;28;20441;-89
2021/09/16 06:25:59;;;;;;;81.03;76.67;;;13.70;99.90;;;;;;5116836;27;20445;-88
2021/09/16 06:28:26;;;;;;;74.93;71.00;;;13.80;99.90;;;;;;5116350;28;20507;-86
2021/09/16 06:30:54;;;;;;;70.63;66.50;;;13.90;99.90;;;;;;5116441;28;20449;-89
2021/09/16 06:33:21;;;;;;;60.60;56.90;;;13.90;99.90;;;;;;5116474;28;20544;-89
2021/09/16 06:35:47;;;;;;;58.50;55.33;;;13.90;99.90;;;;;;5116373;28;20544;-88
2021/09/16 06:38:14;;;;;;;59.10;55.67;;;14.00;99.90;;;;;;5116097;28;20543;-90
2021/09/16 06:40:41;;;;;;;55.30;52.23;;;13.90;99.90;;;;;;5115068;28;20445;-89
2021/09/16 06:43:08;;;;;;;56.60;53.30;;;14.10;99.90;;;;;;5113825;28;20476;-89
2021/09/16 06:45:35;;;;;;;56.30;53.17;;;14.10;99.90;;;;;;5114719;28;20481;-89
2021/09/16 06:48:03;;;;;;;48.17;44.97;;;14.20;99.90;;;;;;5114010;28;21126;-89
2021/09/16 06:50:30;;;;;;;44.20;41.70;;;14.20;99.90;;;;;;5113897;28;20449;-88
2021/09/16 06:52:57;;;;;;;45.43;42.40;;;14.30;99.90;;;;;;5114693;28;20481;-88
2021/09/16 06:55:24;;;;;;;41.20;37.50;;;14.50;99.90;;;;;;5113176;28;20936;-89
2021/09/16 06:57:54;;;;;;;40.53;37.87;;;14.40;99.90;;;;;;5114620;28;20461;-86
2021/09/16 07:00:21;;;;;;;38.17;35.10;;;14.60;99.90;;;;;;5113795;28;20455;-88
2021/09/16 07:02:51;;;;;;;34.00;31.60;;;14.60;99.90;;;;;;5113990;28;20476;-90
2021/09/16 07:05:20;;;;;;;29.80;27.60;;;14.70;99.90;;;;;;5114849;28;20873;-90
2021/09/16 07:07:47;;;;;;;28.53;26.20;;;14.90;99.90;;;;;;5114629;28;20958;-89
2021/09/16 07:10:13;;;;;;;22.13;20.13;;;15.00;99.90;;;;;;5113761;28;20509;-88
2021/09/16 07:12:40;;;;;;;21.60;19.50;;;15.10;99.90;;;;;;5114145;28;20461;-87
2021/09/16 07:15:08;;;;;;;21.93;18.80;;;15.30;99.90;;;;;;5113955;28;21031;-89
2021/09/16 07:17:38;;;;;;;20.53;18.40;;;15.40;99.90;;;;;;5115971;28;20466;-93
2021/09/16 07:20:07;;;;;;;16.77;15.07;;;15.50;99.90;;;;;;5118606;28;20459;-89
2021/09/16 07:22:52;;;;;;;22.50;16.58;;;15.60;97.40;;;;;;5115698;28;20521;-89
2021/09/16 07:25:18;;;;;;;17.43;15.63;;;16.00;97.40;;;;;;5113866;28;20199;-89
2021/09/16 07:27:47;;;;;;;16.20;13.50;;;16.20;95.80;;;;;;5115099;28;20473;-88
2021/09/16 07:30:15;;;;;;;16.47;12.20;;;16.20;93.50;;;;;;5115066;28;20449;-93
2021/09/16 07:32:42;;;;;;;20.93;11.70;;;16.20;91.90;;;;;;5114930;28;20551;-89
2021/09/16 07:35:21;;;;;;;13.13;10.93;;;16.30;91.80;;;;;;5114973;28;20982;-88
2021/09/16 07:37:50;;;;;;;19.87;11.57;;;16.40;90.70;;;;;;5114780;28;20463;-88
2021/09/16 07:40:16;;;;;;;14.33;10.33;;;16.50;90.50;;;;;;5113587;28;20747;-88
2021/09/16 07:42:43;;;;;;;21.17;11.77;;;16.40;89.20;;;;;;5114796;28;20484;-89
2021/09/16 07:45:11;;;;;;;19.33;10.80;;;16.60;89.20;;;;;;5114624;28;20480;-89
2021/09/16 07:47:38;;;;;;;16.03;10.07;;;16.70;90.10;;;;;;5114477;28;20477;-86
2021/09/16 07:50:05;;;;;;;14.00;9.47;;;16.90;87.30;;;;;;5114413;28;20456;-88
2021/09/16 07:52:35;;;;;;;16.67;9.67;;;17.00;84.80;;;;;;5114450;28;20450;-89
2021/09/16 07:55:04;;;;;;;15.53;9.40;;;17.10;83.40;;;;;;5113341;28;20539;-87
2021/09/16 07:57:31;;;;;;;13.17;9.60;;;17.10;80.90;;;;;;5114515;28;20835;-87
2021/09/16 08:00:01;;;;;;;13.20;8.40;;;17.10;81.30;;;;;;5114318;28;20455;-87
2021/09/16 08:02:29;;;;;;;12.10;9.00;;;17.30;80.40;;;;;;5113867;28;20569;-87
2021/09/16 08:04:58;;;;;;;19.73;10.43;;;17.50;81.50;;;;;;5114292;28;20948;-87
2021/09/16 08:07:25;;;;;;;13.63;8.10;;;17.60;77.50;;;;;;5113520;28;20506;-87
2021/09/16 08:09:52;;;;;;;15.93;9.07;;;17.50;77.00;;;;;;5114157;28;20513;-84
2021/09/16 08:12:23;;;;;;;14.93;7.43;;;17.70;75.90;;;;;;5113310;28;20451;-86
2021/09/16 08:14:50;;;;;;;13.50;8.97;;;17.80;76.70;;;;;;5114033;28;20482;-88
2021/09/16 08:17:17;;;;;;;11.70;8.90;;;17.90;75.50;;;;;;5114232;27;20449;-87
2021/09/16 08:19:44;;;;;;;13.40;7.57;;;17.70;73.90;;;;;;5114407;28;20490;-86
2021/09/16 08:22:11;;;;;;;14.50;7.37;;;18.00;75.20;;;;;;5113874;28;20475;-86
2021/09/16 08:24:38;;;;;;;17.00;5.87;;;17.70;71.00;;;;;;5113956;28;20947;-88
2021/09/16 08:27:18;;;;;;;12.80;7.10;;;17.80;71.50;;;;;;5112963;28;20561;-86
2021/09/16 08:29:49;;;;;;;12.30;6.80;;;17.80;71.10;;;;;;5114157;28;20459;-86
2021/09/16 08:32:18;;;;;;;9.60;6.20;;;18.20;70.40;;;;;;5113925;28;20868;-87
2021/09/16 08:34:55;;;;;;;9.70;5.40;;;18.10;71.50;;;;;;5113894;27;20549;-88
2021/09/16 08:43:32;;;;;;;7.93;3.33;;;18.20;64.70;;;;;;5111613;28;20525;-85
2021/09/16 08:46:38;;;;;;;8.77;3.50;;;18.30;64.40;;;;;;5113892;28;20516;-87
2021/09/16 08:49:07;;;;;;;5.33;2.80;;;18.30;64.30;;;;;;5103193;28;21023;-87
2021/09/16 08:51:49;;;;;;;8.57;2.90;;;18.20;63.00;;;;;;5114297;28;20532;-89
2021/09/16 08:54:16;;;;;;;9.90;3.57;;;18.10;63.20;;;;;;5114577;28;20507;-90
2021/09/16 08:56:48;;;;;;;7.93;2.20;;;18.50;63.20;;;;;;5112910;28;20516;-89
2021/09/16 08:59:17;;;;;;;5.30;2.20;;;19.30;56.80;;;;;;5113650;28;20467;-88
2021/09/16 09:01:52;;;;;;;8.33;2.90;;;19.60;51.90;;;;;;5114251;28;20470;-93
2021/09/16 09:04:23;;;;;;;12.33;2.53;;;19.60;52.80;;;;;;5114130;28;20481;-90
2021/09/16 09:07:04;;;;;;;9.63;2.57;;;19.50;50.20;;;;;;5113887;28;20509;-92
2021/09/16 09:09:33;;;;;;;8.20;3.43;;;19.50;49.50;;;;;;5114034;28;20483;-90
2021/09/16 09:12:02;;;;;;;5.37;2.27;;;19.70;47.20;;;;;;5112044;28;20461;-89
2021/09/16 09:14:31;;;;;;;7.73;2.83;;;20.20;50.70;;;;;;5114085;28;20465;-90
2021/09/16 09:16:59;;;;;;;8.80;3.40;;;20.20;48.90;;;;;;5113625;28;20479;-89
2021/09/16 09:19:29;;;;;;;5.60;3.47;;;20.40;47.20;;;;;;5116832;28;20453;-90
2021/09/16 09:22:02;;;;;;;7.10;4.03;;;20.20;49.10;;;;;;5117683;28;20478;-91
2021/09/16 09:24:39;;;;;;;7.00;3.90;;;20.60;46.20;;;;;;5117562;28;20460;-92
2021/09/16 09:27:26;;;;;;;10.37;4.70;;;21.10;45.40;;;;;;5116753;28;20537;-90
2021/09/16 09:30:10;;;;;;;8.73;3.50;;;21.30;44.20;;;;;;5117696;28;20788;-89
2021/09/16 09:33:00;;;;;;;5.43;2.70;;;21.60;37.50;;;;;;5117802;28;20448;-89
2021/09/16 09:35:34;;;;;;;6.43;2.47;;;21.10;38.10;;;;;;5117418;28;20449;-88
2021/09/16 09:38:23;;;;;;;5.90;3.10;;;20.90;39.90;;;;;;5117190;28;20442;-85
2021/09/16 09:44:19;;;;;;;4.90;2.37;;;21.00;40.80;;;;;;5069161;28;20837;-87
2021/09/16 09:57:13;;;;;;;6.27;2.73;;;20.10;38.20;;;;;;5028148;28;20924;-91
2021/09/16 10:00:28;;;;;;;5.07;2.83;;;20.50;38.40;;;;;;4986570;28;20462;-88
2021/09/16 10:03:30;;;;;;;4.33;1.87;;;20.20;38.40;;;;;;4972795;28;20453;-88
2021/09/16 10:10:03;;;;;;;7.13;2.80;;;21.40;35.70;;;;;;5053408;28;20486;-90
2021/09/16 10:23:18;;;;;;;5.93;3.60;;;19.90;38.50;;;;;;4856383;28;20864;-91
2021/09/16 10:32:48;;;;;;;4.00;1.80;;;20.90;34.50;;;;;;5140951;23;20490;-91
2021/09/16 10:35:42;;;;;;;8.60;2.67;;;20.30;38.10;;;;;;5035042;28;20489;-90
2021/09/16 10:42:13;;;;;;;;;;;;;;;;;;;;;
2021/09/16 10:44:48;;;;;;;9.10;4.43;;;19.40;42.20;;;;;;5034468;28;20459;-87
2021/09/16 10:50:23;;;;;;;10.47;4.40;;;20.10;38.00;;;;;;5033562;28;20482;-86
2021/09/16 10:53:46;;;;;;;7.20;3.60;;;20.80;36.10;;;;;;5034326;28;20525;-87
2021/09/16 10:56:59;;;;;;;7.00;3.43;;;21.80;29.30;;;;;;5033518;28;20500;-87
2021/09/16 11:06:13;;;;;;;6.63;3.47;;;21.20;29.80;;;;;;5032459;28;20446;-85
2021/09/16 11:09:00;;;;;;;9.47;4.60;;;21.20;34.20;;;;;;5034731;28;20486;-85
2021/09/16 11:12:02;;;;;;;;;;;;;;;;;;;;;
2021/09/16 11:14:40;;;;;;;5.40;2.70;;;22.60;28.90;;;;;;5025265;28;20447;-88
2021/09/16 11:17:11;;;;;;;8.27;3.70;;;23.00;28.00;;;;;;5034582;28;20506;-78
2021/09/16 11:19:45;;;;;;;8.00;3.70;;;23.70;24.50;;;;;;5034610;28;20468;-78
2021/09/16 11:22:22;;;;;;;6.20;3.33;;;24.50;23.00;;;;;;5034599;28;21001;-86
2021/09/16 11:24:51;;;;;;;7.30;2.13;;;25.20;19.40;;;;;;5035737;28;20470;-87
2021/09/16 11:27:36;;;;;;;5.90;2.40;;;23.80;22.50;;;;;;5033673;28;20452;-88
2021/09/16 11:30:07;;;;;;;6.43;2.80;;;22.20;27.40;;;;;;5034465;28;20499;-83
2021/09/16 11:32:36;;;;;;;4.30;2.50;;;21.50;29.80;;;;;;5034387;28;20611;-83
2021/09/16 11:35:05;;;;;;;4.83;2.50;;;22.00;31.00;;;;;;5034204;28;20951;-83
2021/09/16 11:37:44;;;;;;;5.10;2.37;;;23.10;24.50;;;;;;5034145;28;20479;-83
2021/09/16 11:40:22;;;;;;;6.47;2.40;;;24.30;18.20;;;;;;5032771;28;20544;-83
2021/09/16 11:42:53;;;;;;;6.83;2.90;;;23.20;22.00;;;;;;5033190;28;20849;-83
2021/09/16 11:45:20;;;;;;;7.73;3.13;;;22.70;23.60;;;;;;5034293;28;20462;-83
2021/09/16 11:47:54;;;;;;;6.27;3.50;;;22.40;22.90;;;;;;5034290;28;20460;-83
2021/09/16 11:50:29;;;;;;;6.67;3.20;;;22.90;28.90;;;;;;5033884;28;20828;-83
2021/09/16 11:53:01;;;;;;;5.80;3.37;;;22.40;25.00;;;;;;5033967;28;20879;-83
2021/09/16 11:55:30;;;;;;;6.63;2.87;;;22.40;25.20;;;;;;5032602;28;20926;-83
2021/09/16 11:58:00;;;;;;;5.90;2.50;;;21.90;28.40;;;;;;5033923;28;20868;-83
2021/09/16 12:00:30;;;;;;;5.67;3.20;;;21.30;28.60;;;;;;5033837;28;20465;-83
2021/09/16 12:03:04;;;;;;;9.83;2.20;;;21.30;28.60;;;;;;5033828;28;20502;-83
2021/09/16 12:08:42;;;;;;;8.63;2.40;;;21.20;29.20;;;;;;5028736;28;20479;-88
2021/09/16 12:14:48;;;;;;;6.93;2.50;;;21.50;29.20;;;;;;4997542;28;20521;-87
2021/09/16 12:17:21;;;;;;;6.03;2.30;;;21.50;25.40;;;;;;5033928;28;20524;-89
2021/09/16 12:19:56;;;;;;;6.50;2.30;;;21.40;28.00;;;;;;5034965;28;20836;-86
2021/09/16 12:22:26;;;;;;;8.10;1.90;;;21.40;28.20;;;;;;5035276;28;20537;-90
2021/09/16 12:24:54;;;;;;;8.20;2.37;;;21.50;30.00;;;;;;5034867;28;21025;-89
2021/09/16 12:27:30;;;;;;;5.63;1.77;;;21.50;31.10;;;;;;5033070;28;20863;-90
2021/09/16 12:30:18;;;;;;;5.40;1.80;;;21.60;29.30;;;;;;5034176;28;20537;-90
2021/09/16 12:32:49;;;;;;;5.60;1.90;;;21.40;31.50;;;;;;5034049;28;20481;-90
2021/09/16 12:38:24;;;;;;;4.80;1.30;;;21.10;29.70;;;;;;5328891;22;20492;-90
2021/09/16 13:04:07;;;;;;;3.57;1.23;;;21.80;29.00;;;;;;4936084;28;20839;-90
2021/09/16 13:07:49;;;;;;;5.00;2.37;;;21.70;30.00;;;;;;4953252;28;20465;-91
2021/09/16 13:11:15;;;;;;;5.53;1.30;;;21.50;27.40;;;;;;4851915;29;21036;-91
2021/09/16 13:14:42;;;;;;;;;;;;;;;;;;;;;
2021/09/16 13:18:01;;;;;;;4.37;1.90;;;20.80;27.60;;;;;;4880423;29;21105;-90
2021/09/16 13:38:31;;;;;;;4.27;2.00;;;21.40;28.00;;;;;;5112830;22;20474;-87
2021/09/16 13:41:37;;;;;;;5.33;2.10;;;22.00;24.40;;;;;;5072455;28;20456;-87
2021/09/16 13:50:20;;;;;;;;;;;;;;;;;;;;;
2021/09/16 13:52:47;;;;;;;3.93;1.50;;;20.40;31.30;;;;;;5043314;28;20530;-82
2021/09/16 13:58:35;;;;;;;5.03;1.87;;;20.60;31.40;;;;;;5051813;28;20455;-88
2021/09/16 14:01:10;;;;;;;5.80;1.90;;;20.80;32.70;;;;;;5052881;28;20492;-91
2021/09/16 14:03:42;;;;;;;6.30;2.40;;;20.60;28.00;;;;;;5053315;28;20459;-90
2021/09/16 14:06:09;;;;;;;4.90;1.97;;;20.40;29.50;;;;;;5054815;28;20553;-87
2021/09/16 14:08:38;;;;;;;5.47;1.80;;;20.70;28.90;;;;;;5056780;28;20461;-90
2021/09/16 14:13:55;;;;;;;5.93;1.80;;;21.90;26.10;;;;;;5049878;28;20460;-87
2021/09/16 14:16:30;;;;;;;5.80;1.77;;;21.70;25.50;;;;;;5057384;28;20455;-90
2021/09/16 14:18:59;;;;;;;7.83;2.07;;;21.30;28.00;;;;;;5057167;28;20461;-91
2021/09/16 14:21:39;;;;;;;5.90;2.13;;;21.10;31.00;;;;;;5057502;28;20458;-87
2021/09/16 14:24:09;;;;;;;7.67;2.20;;;20.90;31.60;;;;;;5056932;28;20459;-90
2021/09/16 14:26:53;;;;;;;8.30;2.57;;;20.80;29.60;;;;;;5056188;28;20873;-94
2021/09/16 14:29:27;;;;;;;5.73;2.00;;;20.80;27.60;;;;;;5056633;28;20492;-89
2021/09/16 14:31:58;;;;;;;5.70;2.20;;;20.70;29.70;;;;;;5055964;28;20449;-85
2021/09/16 14:34:28;;;;;;;6.57;2.10;;;20.80;33.60;;;;;;5055792;28;20482;-87
2021/09/16 14:37:04;;;;;;;4.07;1.63;;;20.90;32.00;;;;;;5055683;28;20474;-90
2021/09/16 14:39:34;;;;;;;5.93;2.07;;;21.20;33.70;;;;;;5431458;22;20478;-88
2021/09/16 14:42:11;;;;;;;5.53;2.00;;;21.50;32.40;;;;;;5074392;28;20449;-90
2021/09/16 14:44:47;;;;;;;7.77;1.97;;;21.60;29.40;;;;;;5076513;28;20790;-88
2021/09/16 14:47:22;;;;;;;5.97;1.90;;;21.60;28.20;;;;;;5076005;28;20858;-87
2021/09/16 14:49:57;;;;;;;4.40;1.63;;;21.50;29.00;;;;;;5075704;28;20569;-87
2021/09/16 14:52:26;;;;;;;7.13;1.60;;;21.30;29.50;;;;;;5076126;28;20465;-87
2021/09/16 14:54:58;;;;;;;4.83;1.80;;;21.40;28.60;;;;;;5076366;28;20456;-91